Time;durP1;ratioP1;P1;durP2;ratioP2;P2;SDS_P1;SDS_P2;PMS_P1;PMS_P2;Temp;Humidity;BMP_temperature;BMP_pressure;BME280_temperature;BME280_humidity;BME280_pressure;Samples;Min_cycle;Max_cycle;Signal;HPM_P1;HPM_P2
2022/11/10 00:02:52;;;;;;;0.82;0.50;;;;;;;;;;10433324;28;20697;-68
2022/11/10 00:08:12;;;;;;;2.65;0.43;;;;;;;;;;10416611;28;20615;-69
2022/11/10 00:13:34;;;;;;;0.60;0.55;;;;;;;;;;10441338;28;20222;-69
2022/11/10 00:18:53;;;;;;;0.55;0.55;;;;;;;;;;10442547;28;20253;-68
2022/11/10 00:24:13;;;;;;;2.38;0.40;;;;;;;;;;10444148;28;20210;-68
2022/11/10 00:29:34;;;;;;;5.88;0.60;;;;;;;;;;10440295;28;20226;-69
2022/11/10 00:34:54;;;;;;;1.98;0.40;;;;;;;;;;10438121;28;20722;-69
2022/11/10 00:40:13;;;;;;;0.68;0.40;;;;;;;;;;10437803;28;20306;-68
2022/11/10 00:45:33;;;;;;;2.38;0.60;;;;;;;;;;10442371;28;20222;-70
2022/11/10 00:50:53;;;;;;;0.50;0.50;;;;;;;;;;10443929;28;20568;-69
2022/11/10 00:56:13;;;;;;;4.15;0.38;;;;;;;;;;10443821;28;20209;-69
2022/11/10 01:01:33;;;;;;;0.32;0.32;;;;;;;;;;10440650;28;20213;-70
2022/11/10 01:06:52;;;;;;;1.17;0.47;;;;;;;;;;10442495;28;20761;-69
2022/11/10 01:12:13;;;;;;;1.90;0.60;;;;;;;;;;10441466;28;20218;-70
2022/11/10 01:17:33;;;;;;;2.25;0.50;;;;;;;;;;10418825;28;20227;-70
2022/11/10 01:22:53;;;;;;;5.18;0.50;;;;;;;;;;10425272;28;20600;-70
2022/11/10 01:28:13;;;;;;;0.85;0.40;;;;;;;;;;10438562;28;20325;-69
2022/11/10 01:33:33;;;;;;;2.33;0.50;;;;;;;;;;10438332;28;20210;-70
2022/11/10 01:38:52;;;;;;;4.00;0.60;;;;;;;;;;10443796;28;20222;-70
2022/11/10 01:44:12;;;;;;;1.05;0.57;;;;;;;;;;10440744;28;20682;-70
2022/11/10 01:49:34;;;;;;;3.90;1.00;;;;;;;;;;10442072;28;20680;-69
2022/11/10 01:54:54;;;;;;;3.42;0.70;;;;;;;;;;10439474;28;20271;-70
2022/11/10 02:00:14;;;;;;;0.75;0.45;;;;;;;;;;10438802;28;20218;-70
2022/11/10 02:05:35;;;;;;;1.90;0.80;;;;;;;;;;10441712;28;20329;-69
2022/11/10 02:10:55;;;;;;;1.27;0.70;;;;;;;;;;10430076;28;21001;-69
2022/11/10 02:16:15;;;;;;;5.28;0.65;;;;;;;;;;10437630;28;20637;-70
2022/11/10 02:21:35;;;;;;;1.35;0.50;;;;;;;;;;10437296;28;20230;-69
2022/11/10 02:26:56;;;;;;;1.58;0.50;;;;;;;;;;10440318;28;20706;-69
2022/11/10 02:32:15;;;;;;;2.92;1.00;;;;;;;;;;10429293;28;20702;-69
2022/11/10 02:37:35;;;;;;;1.40;0.47;;;;;;;;;;10404974;28;20609;-69
2022/11/10 02:42:55;;;;;;;4.85;0.82;;;;;;;;;;10435794;28;20214;-69
2022/11/10 02:48:15;;;;;;;1.55;0.57;;;;;;;;;;10435658;28;20701;-69
2022/11/10 02:53:35;;;;;;;2.08;0.80;;;;;;;;;;10433890;28;20690;-72
2022/11/10 02:58:55;;;;;;;1.42;0.90;;;;;;;;;;10432605;28;20214;-69
2022/11/10 03:04:15;;;;;;;2.35;0.70;;;;;;;;;;10430673;28;20222;-70
2022/11/10 03:09:35;;;;;;;0.98;0.73;;;;;;;;;;10446076;28;20226;-70
2022/11/10 03:14:54;;;;;;;5.53;0.60;;;;;;;;;;10435032;28;20664;-70
2022/11/10 03:20:14;;;;;;;13.20;1.17;;;;;;;;;;10435828;28;20781;-70
2022/11/10 03:25:34;;;;;;;1.15;0.65;;;;;;;;;;10432970;28;20218;-70
2022/11/10 03:30:54;;;;;;;3.63;0.60;;;;;;;;;;10436429;28;20766;-71
2022/11/10 03:36:14;;;;;;;1.10;0.50;;;;;;;;;;10435305;28;20210;-70
2022/11/10 03:41:34;;;;;;;4.25;0.70;;;;;;;;;;10431910;28;20214;-70
2022/11/10 03:46:54;;;;;;;5.68;1.10;;;;;;;;;;10441831;28;20214;-69
2022/11/10 03:52:14;;;;;;;1.00;0.82;;;;;;;;;;10434227;28;20876;-70
2022/11/10 03:57:34;;;;;;;2.83;0.93;;;;;;;;;;10433774;28;20210;-71
2022/11/10 04:02:53;;;;;;;6.07;0.85;;;;;;;;;;10432259;28;20214;-71
2022/11/10 04:19:42;;;;;;;1.80;0.82;;;;;;;;;;10412338;28;20223;-70
2022/11/10 04:25:02;;;;;;;0.88;0.70;;;;;;;;;;10433827;28;20582;-70
2022/11/10 04:30:22;;;;;;;4.18;1.13;;;;;;;;;;10434793;28;20226;-70
2022/11/10 04:35:42;;;;;;;3.80;0.60;;;;;;;;;;10433952;28;20211;-69
2022/11/10 04:41:01;;;;;;;7.57;1.08;;;;;;;;;;10436412;28;20223;-71
2022/11/10 04:46:37;;;;;;;1.83;0.90;;;;;;;;;;10415211;28;20223;-69
2022/11/10 04:51:57;;;;;;;2.20;0.63;;;;;;;;;;10438470;28;20696;-70
2022/11/10 04:57:17;;;;;;;3.05;0.80;;;;;;;;;;10442658;28;20207;-70
2022/11/10 05:02:37;;;;;;;1.85;1.23;;;;;;;;;;10438616;28;20222;-70
2022/11/10 05:07:57;;;;;;;2.35;0.70;;;;;;;;;;10442590;28;20218;-70
2022/11/10 05:13:17;;;;;;;4.38;1.15;;;;;;;;;;10438817;28;20793;-70
2022/11/10 05:18:37;;;;;;;1.48;0.60;;;;;;;;;;10427612;28;20810;-70
2022/11/10 05:23:57;;;;;;;2.40;0.95;;;;;;;;;;10442225;28;20229;-70
2022/11/10 05:29:17;;;;;;;0.93;0.73;;;;;;;;;;10438104;28;20226;-70
2022/11/10 05:34:37;;;;;;;0.77;0.50;;;;;;;;;;10434853;28;20234;-70
2022/11/10 05:39:57;;;;;;;2.25;0.90;;;;;;;;;;10438299;28;20215;-70
2022/11/10 05:45:17;;;;;;;0.60;0.50;;;;;;;;;;10436763;28;20218;-70
2022/11/10 05:50:36;;;;;;;2.83;0.70;;;;;;;;;;10418035;28;20290;-71
2022/11/10 05:55:56;;;;;;;2.05;1.45;;;;;;;;;;10436130;28;20203;-70
2022/11/10 06:01:16;;;;;;;5.47;1.05;;;;;;;;;;10426082;28;20202;-70
2022/11/10 06:06:36;;;;;;;7.55;0.98;;;;;;;;;;10429709;28;20250;-71
2022/11/10 06:11:56;;;;;;;4.97;1.52;;;;;;;;;;10421246;28;20214;-70
2022/11/10 06:17:16;;;;;;;0.80;0.80;;;;;;;;;;10433665;28;20239;-71
2022/11/10 06:22:36;;;;;;;2.05;1.40;;;;;;;;;;10428127;28;20210;-70
2022/11/10 06:27:56;;;;;;;2.65;1.00;;;;;;;;;;10416670;28;20219;-71
2022/11/10 06:33:15;;;;;;;3.83;1.33;;;;;;;;;;10427422;28;20694;-70
2022/11/10 06:38:36;;;;;;;3.72;1.50;;;;;;;;;;10424181;28;20226;-71
2022/11/10 06:43:56;;;;;;;3.30;1.48;;;;;;;;;;10422958;28;20223;-71
2022/11/10 06:49:16;;;;;;;1.58;1.40;;;;;;;;;;10432792;28;20225;-71
2022/11/10 06:54:36;;;;;;;5.05;1.52;;;;;;;;;;10433021;28;20210;-71
2022/11/10 06:59:56;;;;;;;1.23;1.13;;;;;;;;;;10434831;28;20218;-71
2022/11/10 07:05:15;;;;;;;2.33;1.40;;;;;;;;;;10435054;28;20218;-71
2022/11/10 07:10:35;;;;;;;6.43;1.98;;;;;;;;;;10431500;28;20202;-71
2022/11/10 07:15:55;;;;;;;2.80;1.50;;;;;;;;;;10432645;28;20211;-70
2022/11/10 07:21:15;;;;;;;8.73;1.60;;;;;;;;;;10435786;28;20222;-72
2022/11/10 07:26:35;;;;;;;4.47;1.50;;;;;;;;;;10436958;28;20218;-70
2022/11/10 07:31:55;;;;;;;2.83;1.42;;;;;;;;;;10446373;28;20215;-71
2022/11/10 07:37:15;;;;;;;5.30;1.83;;;;;;;;;;10436338;28;20305;-71
2022/11/10 07:42:39;;;;;;;8.38;1.80;;;;;;;;;;10437922;28;20223;-71
2022/11/10 07:48:02;;;;;;;5.20;1.58;;;;;;;;;;10434311;28;20234;-71
2022/11/10 07:53:22;;;;;;;2.25;1.52;;;;;;;;;;10437333;28;20234;-71
2022/11/10 07:58:41;;;;;;;6.78;1.75;;;;;;;;;;10443954;28;20218;-71
2022/11/10 08:04:01;;;;;;;1.80;1.63;;;;;;;;;;10414936;28;20301;-70
2022/11/10 08:09:21;;;;;;;6.43;1.30;;;;;;;;;;10431736;28;20222;-71
2022/11/10 08:14:40;;;;;;;2.08;1.35;;;;;;;;;;10430761;28;20876;-71
2022/11/10 08:20:00;;;;;;;4.60;1.95;;;;;;;;;;10435056;28;20238;-71
2022/11/10 08:25:20;;;;;;;2.60;1.73;;;;;;;;;;10432805;28;20222;-71
2022/11/10 08:30:41;;;;;;;6.72;1.00;;;;;;;;;;10452486;28;20199;-72
2022/11/10 08:36:01;;;;;;;3.30;1.35;;;;;;;;;;10428131;28;20207;-72
2022/11/10 08:41:21;;;;;;;1.70;1.15;;;;;;;;;;10436182;28;20214;-72
2022/11/10 08:46:43;;;;;;;4.65;1.05;;;;;;;;;;10427046;28;20234;-69
2022/11/10 08:52:03;;;;;;;5.45;2.33;;;;;;;;;;10437816;28;20220;-69
2022/11/10 08:57:22;;;;;;;2.17;1.02;;;;;;;;;;10425970;28;20211;-69
2022/11/10 09:02:43;;;;;;;2.50;0.98;;;;;;;;;;10442038;28;20683;-68
2022/11/10 09:08:03;;;;;;;6.47;1.15;;;;;;;;;;10429552;28;20301;-68
2022/11/10 09:13:23;;;;;;;4.10;1.27;;;;;;;;;;10445683;28;20703;-68
2022/11/10 09:18:42;;;;;;;1.38;0.90;;;;;;;;;;10437679;28;20235;-72
2022/11/10 09:24:02;;;;;;;4.30;0.90;;;;;;;;;;10435507;28;20579;-72
2022/11/10 09:29:23;;;;;;;2.45;1.20;;;;;;;;;;10429756;28;20222;-73
2022/11/10 09:34:42;;;;;;;3.40;1.08;;;;;;;;;;10448499;28;20211;-72
2022/11/10 09:40:02;;;;;;;3.53;1.38;;;;;;;;;;10436682;28;20214;-74
2022/11/10 09:45:33;;;;;;;3.03;1.23;;;;;;;;;;10433687;28;20752;-69
2022/11/10 09:50:55;;;;;;;7.13;0.70;;;;;;;;;;10418181;28;20582;-70
2022/11/10 09:56:17;;;;;;;0.95;0.93;;;;;;;;;;10435526;28;20210;-70
2022/11/10 10:01:40;;;;;;;2.58;0.73;;;;;;;;;;10435568;28;20301;-69
2022/11/10 10:07:22;;;;;;;5.45;0.70;;;;;;;;;;10430427;28;20345;-71
2022/11/10 10:13:02;;;;;;;6.18;1.02;;;;;;;;;;10429753;28;20210;-71
2022/11/10 10:18:28;;;;;;;1.75;0.65;;;;;;;;;;10403463;28;20233;-69
2022/11/10 10:23:52;;;;;;;1.27;0.70;;;;;;;;;;10422940;28;20219;-71
2022/11/10 10:29:22;;;;;;;5.75;0.75;;;;;;;;;;10422313;28;20215;-70
2022/11/10 10:34:43;;;;;;;1.08;0.52;;;;;;;;;;10423421;28;20301;-69
2022/11/10 10:40:03;;;;;;;3.75;0.90;;;;;;;;;;10425504;28;20232;-69
2022/11/10 10:45:24;;;;;;;3.60;0.90;;;;;;;;;;10430316;28;20774;-70
2022/11/10 10:50:45;;;;;;;2.88;0.43;;;;;;;;;;10402835;28;20262;-71
2022/11/10 10:56:12;;;;;;;4.32;0.60;;;;;;;;;;10422005;28;20219;-70
2022/11/10 11:01:33;;;;;;;9.93;0.93;;;;;;;;;;10421006;28;20285;-72
2022/11/10 11:06:58;;;;;;;0.95;0.60;;;;;;;;;;10435598;28;20227;-70
2022/11/10 11:12:21;;;;;;;1.40;0.95;;;;;;;;;;10428486;28;20238;-70
2022/11/10 11:17:52;;;;;;;3.22;0.50;;;;;;;;;;10451827;28;20934;-70
2022/11/10 11:23:15;;;;;;;1.30;0.50;;;;;;;;;;10472162;28;20225;-71
2022/11/10 11:28:40;;;;;;;2.28;0.68;;;;;;;;;;10466854;28;20214;-71
2022/11/10 11:34:00;;;;;;;1.45;0.50;;;;;;;;;;10463634;28;20249;-70
2022/11/10 11:39:38;;;;;;;4.45;0.70;;;;;;;;;;10469365;28;20630;-71
2022/11/10 11:45:17;;;;;;;3.50;0.63;;;;;;;;;;10464025;28;20332;-71
2022/11/10 11:51:04;;;;;;;2.47;0.52;;;;;;;;;;10470362;28;20796;-70
2022/11/10 11:56:26;;;;;;;4.28;0.80;;;;;;;;;;10473437;28;20257;-71
2022/11/10 12:01:46;;;;;;;1.65;0.85;;;;;;;;;;10467563;28;20218;-71
2022/11/10 12:07:11;;;;;;;1.55;0.47;;;;;;;;;;10464113;28;20221;-71
2022/11/10 12:12:40;;;;;;;4.13;0.63;;;;;;;;;;10464781;28;20218;-70
2022/11/10 12:18:06;;;;;;;2.60;0.60;;;;;;;;;;10466319;28;20246;-70
2022/11/10 12:23:29;;;;;;;2.05;0.60;;;;;;;;;;10453867;28;20241;-68
2022/11/10 12:29:21;;;;;;;2.95;0.63;;;;;;;;;;10470479;28;20221;-70
2022/11/10 12:34:47;;;;;;;1.85;0.43;;;;;;;;;;10447247;28;20217;-70
2022/11/10 12:40:18;;;;;;;4.57;0.60;;;;;;;;;;10468065;28;20206;-72
2022/11/10 12:45:46;;;;;;;1.20;0.60;;;;;;;;;;10467240;28;20217;-72
2022/11/10 12:51:13;;;;;;;3.53;0.45;;;;;;;;;;10467536;28;20689;-73
2022/11/10 12:56:36;;;;;;;2.53;0.50;;;;;;;;;;10469764;28;20628;-71
2022/11/10 13:02:04;;;;;;;4.43;0.57;;;;;;;;;;10453762;28;20214;-72
2022/11/10 13:07:24;;;;;;;0.50;0.43;;;;;;;;;;10462765;28;20700;-72
2022/11/10 13:13:06;;;;;;;2.50;0.70;;;;;;;;;;10469921;28;20296;-71
2022/11/10 13:18:32;;;;;;;0.55;0.43;;;;;;;;;;10480749;28;20250;-71
2022/11/10 13:23:51;;;;;;;6.90;0.88;;;;;;;;;;10452594;28;20202;-70
2022/11/10 13:29:31;;;;;;;3.38;0.50;;;;;;;;;;10474071;28;20704;-71
2022/11/10 13:34:51;;;;;;;4.93;0.70;;;;;;;;;;10483380;28;20670;-68
2022/11/10 13:40:17;;;;;;;2.45;0.60;;;;;;;;;;10472443;28;20215;-70
2022/11/10 13:45:40;;;;;;;3.58;0.50;;;;;;;;;;10468472;28;20222;-69
2022/11/10 13:51:08;;;;;;;1.02;0.43;;;;;;;;;;10470890;28;20213;-69
2022/11/10 13:56:27;;;;;;;0.88;0.40;;;;;;;;;;10456391;28;20293;-69
2022/11/10 14:01:47;;;;;;;2.58;0.50;;;;;;;;;;10474400;28;20213;-68
2022/11/10 14:07:33;;;;;;;6.13;0.75;;;;;;;;;;10471858;28;20209;-71
2022/11/10 14:12:57;;;;;;;1.15;0.63;;;;;;;;;;10455557;28;20252;-70
2022/11/10 14:18:21;;;;;;;5.78;0.40;;;;;;;;;;10483937;28;20725;-68
2022/11/10 14:23:41;;;;;;;2.85;0.75;;;;;;;;;;10474491;28;20206;-67
2022/11/10 14:29:20;;;;;;;0.30;0.30;;;;;;;;;;10458339;28;20332;-70
2022/11/10 14:34:47;;;;;;;4.70;0.98;;;;;;;;;;10473029;28;20728;-72
2022/11/10 14:40:11;;;;;;;3.30;0.82;;;;;;;;;;10466789;28;20296;-69
2022/11/10 14:45:31;;;;;;;3.25;0.90;;;;;;;;;;10475871;28;20675;-68
2022/11/10 14:50:52;;;;;;;1.38;0.75;;;;;;;;;;10473690;28;20209;-70
2022/11/10 14:56:17;;;;;;;0.82;0.82;;;;;;;;;;10475655;28;20213;-69
2022/11/10 15:01:43;;;;;;;2.03;1.00;;;;;;;;;;10469181;28;20214;-70
2022/11/10 15:07:05;;;;;;;3.95;1.30;;;;;;;;;;10476191;28;20241;-71
2022/11/10 15:12:28;;;;;;;2.70;1.35;;;;;;;;;;10487194;28;20206;-71
2022/11/10 15:17:51;;;;;;;4.00;2.33;;;;;;;;;;10490491;28;20234;-71
2022/11/10 15:23:35;;;;;;;3.50;2.88;;;;;;;;;;10483342;28;20268;-71
2022/11/10 15:28:55;;;;;;;4.38;1.20;;;;;;;;;;10485057;28;20210;-70
2022/11/10 15:34:31;;;;;;;7.60;1.05;;;;;;;;;;10479286;28;20214;-72
2022/11/10 15:39:52;;;;;;;3.85;0.95;;;;;;;;;;10478247;28;20245;-72
2022/11/10 15:45:12;;;;;;;4.07;1.67;;;;;;;;;;10477044;28;20261;-72
2022/11/10 15:50:31;;;;;;;5.38;1.10;;;;;;;;;;10479964;28;20247;-72
2022/11/10 15:55:51;;;;;;;1.55;0.90;;;;;;;;;;10459916;28;20213;-69
2022/11/10 16:01:12;;;;;;;6.03;1.15;;;;;;;;;;10476048;28;20210;-71
2022/11/10 16:06:31;;;;;;;1.73;0.95;;;;;;;;;;10478206;28;20264;-68
2022/11/10 16:11:51;;;;;;;4.00;1.38;;;;;;;;;;10476222;28;20214;-69
2022/11/10 16:17:11;;;;;;;7.85;1.75;;;;;;;;;;10454832;28;20221;-69
2022/11/10 16:22:31;;;;;;;4.70;2.55;;;;;;;;;;10473352;28;20300;-68
2022/11/10 16:27:51;;;;;;;4.18;2.08;;;;;;;;;;10473073;28;20225;-69
2022/11/10 16:33:15;;;;;;;3.75;1.00;;;;;;;;;;10478515;28;20214;-69
2022/11/10 16:38:34;;;;;;;2.70;1.25;;;;;;;;;;10475487;28;20214;-68
2022/11/10 16:43:54;;;;;;;3.10;1.00;;;;;;;;;;10468460;28;20230;-70
2022/11/10 16:49:21;;;;;;;3.70;1.10;;;;;;;;;;10481179;28;20214;-71
2022/11/10 16:54:40;;;;;;;2.60;1.20;;;;;;;;;;10472917;28;20210;-70
2022/11/10 17:00:00;;;;;;;3.65;1.00;;;;;;;;;;10481299;28;20222;-70
2022/11/10 17:05:20;;;;;;;6.55;1.50;;;;;;;;;;10483625;28;20214;-70
2022/11/10 17:10:40;;;;;;;1.25;1.23;;;;;;;;;;10475905;28;20701;-69
2022/11/10 17:16:05;;;;;;;2.90;1.80;;;;;;;;;;10476096;28;20238;-70
2022/11/10 17:21:25;;;;;;;2.90;1.45;;;;;;;;;;10437296;28;20211;-72
2022/11/10 17:26:45;;;;;;;1.98;1.20;;;;;;;;;;10430095;28;20214;-72
2022/11/10 17:32:05;;;;;;;3.00;1.40;;;;;;;;;;10392917;28;20212;-72
2022/11/10 17:37:25;;;;;;;4.57;1.38;;;;;;;;;;10400137;28;20219;-71
2022/11/10 17:42:45;;;;;;;1.55;0.90;;;;;;;;;;10393544;28;20742;-72
2022/11/10 17:48:05;;;;;;;2.88;1.38;;;;;;;;;;10393367;28;20222;-72
2022/11/10 17:53:26;;;;;;;5.20;3.00;;;;;;;;;;10398279;28;20215;-72
2022/11/10 17:58:46;;;;;;;6.38;1.98;;;;;;;;;;10426095;28;20222;-72
2022/11/10 18:04:06;;;;;;;1.65;1.48;;;;;;;;;;10399141;28;20215;-70
2022/11/10 18:09:26;;;;;;;4.78;2.15;;;;;;;;;;10398960;28;20211;-74
2022/11/10 18:14:46;;;;;;;3.97;3.35;;;;;;;;;;10457110;28;20206;-68
2022/11/10 18:20:05;;;;;;;4.22;2.53;;;;;;;;;;10432764;28;20288;-69
2022/11/10 18:25:25;;;;;;;4.10;2.42;;;;;;;;;;10440432;28;20246;-71
2022/11/10 18:30:45;;;;;;;9.98;8.05;;;;;;;;;;10441144;28;20218;-73
2022/11/10 18:36:05;;;;;;;8.90;5.90;;;;;;;;;;10425616;28;20210;-73
2022/11/10 18:47:04;;;;;;;3.92;3.63;;;;;;;;;;10439967;28;20222;-72
2022/11/10 18:52:24;;;;;;;8.55;3.60;;;;;;;;;;10438107;28;20210;-71
2022/11/10 18:57:44;;;;;;;3.78;3.47;;;;;;;;;;10440762;28;20218;-70
2022/11/10 19:03:04;;;;;;;3.28;3.08;;;;;;;;;;10423027;28;22812;-72
2022/11/10 19:08:25;;;;;;;6.32;3.13;;;;;;;;;;10435836;28;20206;-68
2022/11/10 19:13:45;;;;;;;4.13;3.08;;;;;;;;;;10416679;28;20702;-69
2022/11/10 19:19:05;;;;;;;6.07;2.30;;;;;;;;;;10455758;28;20799;-70
2022/11/10 19:24:25;;;;;;;2.05;1.98;;;;;;;;;;10478467;28;20205;-67
2022/11/10 19:29:44;;;;;;;2.00;1.90;;;;;;;;;;10478435;28;20222;-70
2022/11/10 19:35:04;;;;;;;5.22;2.53;;;;;;;;;;10434810;28;20214;-69
2022/11/10 19:40:24;;;;;;;5.60;2.33;;;;;;;;;;10473174;28;20211;-68
2022/11/10 19:45:44;;;;;;;4.53;2.60;;;;;;;;;;10460581;28;20314;-68
2022/11/10 19:51:04;;;;;;;3.15;1.85;;;;;;;;;;10450163;28;20642;-68
2022/11/10 19:56:24;;;;;;;5.35;1.50;;;;;;;;;;10458489;28;20310;-67
2022/11/10 20:01:44;;;;;;;1.95;1.85;;;;;;;;;;10476803;28;20210;-68
2022/11/10 20:12:43;;;;;;;2.25;1.65;;;;;;;;;;10433296;28;20222;-69
2022/11/10 20:18:03;;;;;;;1.92;1.75;;;;;;;;;;10439282;28;20234;-68
2022/11/10 20:23:23;;;;;;;3.30;2.35;;;;;;;;;;10434947;28;20210;-68
2022/11/10 20:28:43;;;;;;;3.35;2.75;;;;;;;;;;10442360;28;20222;-68
2022/11/10 20:34:03;;;;;;;3.15;2.55;;;;;;;;;;10432459;28;20214;-70
2022/11/10 20:39:23;;;;;;;3.63;2.17;;;;;;;;;;10449645;28;20222;-69
2022/11/10 20:44:42;;;;;;;4.35;2.45;;;;;;;;;;10437602;28;20297;-70
2022/11/10 20:50:02;;;;;;;2.67;2.45;;;;;;;;;;10402936;28;20611;-69
2022/11/10 20:55:22;;;;;;;3.63;2.00;;;;;;;;;;10403335;28;20218;-70
2022/11/10 21:00:42;;;;;;;2.35;2.10;;;;;;;;;;10444413;28;20690;-70
2022/11/10 21:06:03;;;;;;;5.63;2.03;;;;;;;;;;10425183;28;20730;-70
2022/11/10 21:17:01;;;;;;;1.63;1.42;;;;;;;;;;10438787;28;20230;-70
2022/11/10 21:22:21;;;;;;;2.03;1.33;;;;;;;;;;10438168;28;20210;-70
2022/11/10 21:27:41;;;;;;;1.95;1.10;;;;;;;;;;10452796;28;20222;-69
2022/11/10 21:33:01;;;;;;;3.53;1.55;;;;;;;;;;10441324;28;20293;-69
2022/11/10 21:38:21;;;;;;;4.50;2.10;;;;;;;;;;10437049;28;20242;-70
2022/11/10 21:43:41;;;;;;;4.75;2.28;;;;;;;;;;10435980;28;20528;-69
2022/11/10 21:49:00;;;;;;;3.15;2.30;;;;;;;;;;10440471;28;20223;-69
2022/11/10 21:54:20;;;;;;;4.13;1.10;;;;;;;;;;10439598;28;20305;-70
2022/11/10 21:59:40;;;;;;;2.17;1.23;;;;;;;;;;10437080;28;20219;-70
2022/11/10 22:05:00;;;;;;;2.25;1.50;;;;;;;;;;10437367;28;20211;-69
2022/11/10 22:21:38;;;;;;;4.85;1.48;;;;;;;;;;10498070;27;20575;-69
2022/11/10 22:26:58;;;;;;;9.40;1.23;;;;;;;;;;10495752;28;20237;-69
2022/11/10 22:32:18;;;;;;;6.95;1.45;;;;;;;;;;10495643;28;20614;-69
2022/11/10 22:37:38;;;;;;;3.60;1.90;;;;;;;;;;10495362;28;20748;-69
2022/11/10 22:48:37;;;;;;;1.42;1.33;;;;;;;;;;10491835;28;20218;-69
2022/11/10 22:53:57;;;;;;;7.18;1.70;;;;;;;;;;10490944;28;20614;-68
2022/11/10 22:59:17;;;;;;;5.38;1.30;;;;;;;;;;10488644;28;20221;-69
2022/11/10 23:04:37;;;;;;;3.67;1.02;;;;;;;;;;10489258;28;20210;-69
2022/11/10 23:09:57;;;;;;;5.75;1.02;;;;;;;;;;10495470;28;20210;-69
2022/11/10 23:15:16;;;;;;;4.80;1.05;;;;;;;;;;10491311;28;20212;-69
2022/11/10 23:20:36;;;;;;;1.83;1.20;;;;;;;;;;10487839;28;20229;-70
2022/11/10 23:25:57;;;;;;;1.45;1.23;;;;;;;;;;10489991;28;20214;-70
2022/11/10 23:31:20;;;;;;;5.65;2.00;;;;;;;;;;10469520;28;20207;-70
2022/11/10 23:36:40;;;;;;;1.10;1.10;;;;;;;;;;10460705;28;20237;-70
2022/11/10 23:42:00;;;;;;;1.10;1.00;;;;;;;;;;10460438;28;20222;-70
2022/11/10 23:47:20;;;;;;;2.15;1.40;;;;;;;;;;10459549;28;20221;-70
2022/11/10 23:52:40;;;;;;;2.15;1.23;;;;;;;;;;10460876;28;20332;-69
2022/11/10 23:57:59;;;;;;;2.97;1.73;;;;;;;;;;10466400;28;20226;-69
